Time;durP1;ratioP1;P1;durP2;ratioP2;P2;SDS_P1;SDS_P2;PMS_P1;PMS_P2;Temp;Humidity;BMP_temperature;BMP_pressure;BME280_temperature;BME280_humidity;BME280_pressure;Samples;Min_cycle;Max_cycle;Signal;HPM_P1;HPM_P2
2023/09/27 00:00:23;;;;;;;13.60;11.87;;;19.70;99.90;;;;;;5026571;28;20329;-69
2023/09/27 00:02:52;;;;;;;12.70;11.60;;;19.70;99.90;;;;;;5026120;28;20208;-68
2023/09/27 00:05:20;;;;;;;12.10;11.10;;;19.70;99.90;;;;;;5026661;28;20225;-68
2023/09/27 00:07:47;;;;;;;12.93;11.63;;;19.60;99.90;;;;;;5026314;28;20228;-68
2023/09/27 00:10:14;;;;;;;12.87;11.83;;;19.60;99.90;;;;;;5025996;28;20297;-68
2023/09/27 00:12:41;;;;;;;12.43;11.20;;;19.60;99.90;;;;;;5026671;28;20678;-68
2023/09/27 00:15:11;;;;;;;13.30;12.00;;;19.60;99.90;;;;;;5026196;28;20355;-68
2023/09/27 00:17:38;;;;;;;13.77;11.17;;;19.50;99.90;;;;;;5026379;28;20209;-69
2023/09/27 00:20:11;;;;;;;17.07;11.60;;;19.50;99.90;;;;;;5026012;28;20280;-69
2023/09/27 00:22:38;;;;;;;12.17;10.97;;;19.50;99.90;;;;;;5026112;28;20209;-69
2023/09/27 00:25:08;;;;;;;12.57;11.53;;;19.40;99.90;;;;;;5026339;28;20208;-69
2023/09/27 00:27:35;;;;;;;12.30;11.07;;;19.40;99.90;;;;;;5026083;28;20331;-69
2023/09/27 00:30:04;;;;;;;12.53;11.47;;;19.40;99.90;;;;;;5023684;28;21134;-69
2023/09/27 00:32:31;;;;;;;13.17;11.97;;;19.40;99.90;;;;;;5017297;28;20213;-69
2023/09/27 00:34:59;;;;;;;12.77;11.47;;;19.30;99.90;;;;;;5026402;28;20215;-69
2023/09/27 00:37:27;;;;;;;12.20;10.97;;;19.30;99.90;;;;;;5026503;28;20570;-69
2023/09/27 00:39:55;;;;;;;13.10;11.90;;;19.30;99.90;;;;;;5026225;28;20303;-69
2023/09/27 00:42:23;;;;;;;13.67;12.40;;;19.30;99.90;;;;;;5026072;28;20271;-69
2023/09/27 00:44:50;;;;;;;12.00;11.00;;;19.30;99.90;;;;;;5026032;28;20213;-69
2023/09/27 00:47:17;;;;;;;12.87;11.67;;;19.20;99.90;;;;;;5026043;28;20291;-69
2023/09/27 00:49:45;;;;;;;12.97;11.70;;;19.20;99.90;;;;;;5025399;28;20252;-69
2023/09/27 00:52:14;;;;;;;13.03;11.10;;;19.20;99.90;;;;;;5025930;28;20283;-69
2023/09/27 00:54:42;;;;;;;12.40;11.33;;;19.20;99.90;;;;;;5025605;28;20669;-69
2023/09/27 00:57:09;;;;;;;12.57;11.27;;;19.20;99.90;;;;;;5026027;28;20643;-69
2023/09/27 00:59:37;;;;;;;12.90;11.57;;;19.20;99.90;;;;;;5025677;28;20292;-68
2023/09/27 01:02:05;;;;;;;12.40;11.40;;;19.10;99.90;;;;;;5025416;28;20312;-69
2023/09/27 01:04:32;;;;;;;12.23;11.23;;;19.10;99.90;;;;;;5025866;28;20236;-69
2023/09/27 01:07:00;;;;;;;12.23;11.07;;;19.00;99.90;;;;;;5025424;28;20327;-69
2023/09/27 01:09:27;;;;;;;13.13;11.83;;;18.90;99.90;;;;;;5025173;28;20205;-69
2023/09/27 01:11:55;;;;;;;12.17;11.07;;;19.00;99.90;;;;;;5025026;28;20208;-69
2023/09/27 01:14:24;;;;;;;12.00;10.90;;;19.00;99.90;;;;;;5025003;28;20570;-69
2023/09/27 01:16:51;;;;;;;12.03;10.93;;;19.00;99.90;;;;;;5025022;28;20299;-69
2023/09/27 01:19:17;;;;;;;11.87;10.87;;;18.90;99.90;;;;;;5025832;28;20211;-69
2023/09/27 01:21:44;;;;;;;13.00;11.77;;;18.90;99.90;;;;;;5025256;28;20324;-69
2023/09/27 01:24:13;;;;;;;12.57;11.43;;;18.90;99.90;;;;;;5025261;28;20578;-69
2023/09/27 01:26:41;;;;;;;14.20;12.17;;;18.80;99.90;;;;;;5025302;28;20239;-69
2023/09/27 01:29:08;;;;;;;12.70;11.40;;;18.80;99.90;;;;;;5024970;28;20719;-69
2023/09/27 01:31:37;;;;;;;12.53;11.43;;;18.80;99.90;;;;;;5024990;28;20239;-70
2023/09/27 01:34:04;;;;;;;12.97;11.63;;;18.80;99.90;;;;;;5025009;28;20212;-69
2023/09/27 01:36:31;;;;;;;12.63;11.60;;;18.70;99.90;;;;;;5024584;28;20683;-69
2023/09/27 01:38:58;;;;;;;13.17;11.87;;;18.70;99.90;;;;;;5007984;28;20288;-70
2023/09/27 01:41:26;;;;;;;12.03;11.03;;;18.50;99.90;;;;;;5005072;28;20332;-69
2023/09/27 01:43:53;;;;;;;12.70;11.43;;;18.50;99.90;;;;;;5004139;28;20301;-67
2023/09/27 01:46:20;;;;;;;12.43;11.13;;;18.50;99.90;;;;;;5004866;28;22185;-67
2023/09/27 01:48:48;;;;;;;12.40;11.20;;;18.50;99.90;;;;;;5010861;28;20320;-67
2023/09/27 01:51:15;;;;;;;12.70;11.50;;;18.50;99.90;;;;;;5025017;28;20209;-67
2023/09/27 01:53:41;;;;;;;13.10;11.63;;;18.50;99.90;;;;;;5024546;28;20236;-69
2023/09/27 01:56:08;;;;;;;11.87;10.87;;;18.50;99.90;;;;;;5024905;28;20303;-67
2023/09/27 01:58:37;;;;;;;12.10;11.10;;;18.40;99.90;;;;;;5024814;28;20403;-68
2023/09/27 02:01:03;;;;;;;13.63;11.70;;;18.40;99.90;;;;;;5024980;28;20568;-67
2023/09/27 02:03:30;;;;;;;21.93;12.37;;;18.40;99.90;;;;;;5024382;28;20292;-67
2023/09/27 02:05:58;;;;;;;16.73;12.00;;;18.40;99.90;;;;;;5023849;28;20872;-67
2023/09/27 02:08:25;;;;;;;16.07;11.30;;;18.40;99.90;;;;;;5024266;28;20386;-67
2023/09/27 02:10:52;;;;;;;14.80;11.27;;;18.40;99.90;;;;;;5024428;28;20288;-67
2023/09/27 02:13:19;;;;;;;14.43;11.57;;;18.30;99.90;;;;;;5024898;28;20283;-68
2023/09/27 02:15:47;;;;;;;14.90;11.30;;;18.40;99.90;;;;;;5024434;28;20219;-67
2023/09/27 02:18:14;;;;;;;12.67;11.57;;;18.30;99.90;;;;;;5024497;28;20307;-68
2023/09/27 02:20:41;;;;;;;13.03;11.77;;;18.30;99.90;;;;;;5024580;28;20215;-68
2023/09/27 02:23:08;;;;;;;12.07;11.03;;;18.20;99.90;;;;;;5024699;28;20213;-74
2023/09/27 02:25:35;;;;;;;11.50;10.40;;;18.10;99.90;;;;;;5024715;28;20212;-69
2023/09/27 02:28:02;;;;;;;11.37;10.47;;;17.90;99.90;;;;;;5024737;28;20394;-69
2023/09/27 02:30:29;;;;;;;12.17;11.07;;;17.90;99.90;;;;;;5024261;28;20743;-68
2023/09/27 02:32:57;;;;;;;11.93;10.83;;;17.90;99.90;;;;;;5024851;28;20204;-69
2023/09/27 02:35:24;;;;;;;12.47;11.27;;;18.00;99.90;;;;;;5007473;28;20312;-69
2023/09/27 02:37:51;;;;;;;12.70;10.93;;;18.00;99.90;;;;;;5003124;28;20746;-68
2023/09/27 02:40:18;;;;;;;12.43;11.33;;;18.00;99.90;;;;;;5003016;28;20263;-68
2023/09/27 02:42:46;;;;;;;11.83;10.63;;;18.00;99.90;;;;;;5003084;28;20212;-69
2023/09/27 02:45:14;;;;;;;12.67;11.67;;;18.00;99.90;;;;;;5003483;28;20594;-69
2023/09/27 02:47:45;;;;;;;12.87;11.67;;;18.00;99.90;;;;;;5002886;28;20778;-68
2023/09/27 02:50:14;;;;;;;12.30;11.20;;;17.80;99.90;;;;;;5020614;28;20283;-69
2023/09/27 02:52:41;;;;;;;12.90;11.60;;;17.80;99.90;;;;;;5022445;28;20660;-68
2023/09/27 02:55:09;;;;;;;11.83;10.60;;;17.80;99.90;;;;;;5024639;28;20292;-69
2023/09/27 02:57:36;;;;;;;12.70;11.50;;;17.80;99.90;;;;;;5026553;28;20212;-69
2023/09/27 03:00:06;;;;;;;12.23;11.13;;;17.80;99.90;;;;;;5026477;28;20209;-68
2023/09/27 03:02:33;;;;;;;12.37;11.23;;;17.80;99.90;;;;;;5026340;28;20244;-69
2023/09/27 03:05:00;;;;;;;12.83;11.73;;;17.80;99.90;;;;;;5026486;28;20205;-69
2023/09/27 03:07:28;;;;;;;12.60;11.50;;;17.80;99.90;;;;;;5026173;28;20232;-69
2023/09/27 03:09:58;;;;;;;11.97;10.77;;;17.80;99.90;;;;;;5025703;28;20319;-68
2023/09/27 03:12:25;;;;;;;12.60;11.43;;;17.80;99.90;;;;;;5026251;28;20213;-68
2023/09/27 03:14:52;;;;;;;12.43;11.23;;;17.80;99.90;;;;;;5027383;28;20204;-69
2023/09/27 03:17:20;;;;;;;12.10;11.00;;;17.80;99.90;;;;;;5027460;28;20303;-68
2023/09/27 03:19:47;;;;;;;12.27;11.00;;;17.70;99.90;;;;;;5027246;28;20240;-68
2023/09/27 03:22:14;;;;;;;11.60;10.50;;;17.70;99.90;;;;;;5027357;28;20212;-69
2023/09/27 03:24:42;;;;;;;12.37;11.17;;;17.70;99.90;;;;;;5027684;28;20291;-68
2023/09/27 03:27:09;;;;;;;12.00;10.77;;;17.70;99.90;;;;;;5027543;28;20733;-69
2023/09/27 03:29:36;;;;;;;12.53;11.43;;;17.70;99.90;;;;;;5025387;28;20205;-68
2023/09/27 03:32:03;;;;;;;14.33;11.47;;;17.70;99.90;;;;;;5026404;28;20213;-68
2023/09/27 03:34:31;;;;;;;12.33;11.23;;;17.60;99.90;;;;;;5027662;28;20321;-69
2023/09/27 03:36:58;;;;;;;11.53;10.50;;;17.60;99.90;;;;;;5028138;28;20292;-68
2023/09/27 03:39:28;;;;;;;12.50;11.20;;;17.60;99.90;;;;;;5027465;28;20205;-68
2023/09/27 03:41:57;;;;;;;13.03;11.73;;;17.60;99.90;;;;;;5027554;28;20213;-68
2023/09/27 03:44:24;;;;;;;12.83;11.53;;;17.60;99.90;;;;;;5027220;28;20217;-68
2023/09/27 03:46:51;;;;;;;12.47;11.23;;;17.60;99.90;;;;;;5027044;28;20209;-68
2023/09/27 03:49:18;;;;;;;13.53;11.07;;;17.60;99.90;;;;;;5027315;28;20209;-69
2023/09/27 03:51:45;;;;;;;11.97;10.97;;;17.60;99.90;;;;;;5027319;28;20327;-68
2023/09/27 03:54:12;;;;;;;12.43;11.33;;;17.60;99.90;;;;;;5027035;28;20614;-68
2023/09/27 03:56:39;;;;;;;11.10;10.10;;;17.60;99.90;;;;;;5027189;28;20232;-68
2023/09/27 03:59:07;;;;;;;11.70;10.70;;;17.60;99.90;;;;;;5026586;28;20303;-68
2023/09/27 04:01:34;;;;;;;11.93;10.73;;;17.60;99.90;;;;;;5026515;28;20303;-68
2023/09/27 04:04:04;;;;;;;13.30;11.93;;;17.60;99.90;;;;;;5026859;28;20232;-68
2023/09/27 04:06:31;;;;;;;13.13;11.33;;;17.60;99.90;;;;;;5025975;28;20212;-68
2023/09/27 04:08:57;;;;;;;14.77;13.47;;;17.60;99.90;;;;;;5026440;28;20320;-68
2023/09/27 04:11:24;;;;;;;14.40;13.07;;;17.60;99.90;;;;;;5026057;28;20396;-69
2023/09/27 04:13:51;;;;;;;14.03;12.83;;;17.70;99.90;;;;;;5026250;28;20215;-68
2023/09/27 04:16:19;;;;;;;13.37;12.27;;;17.70;99.90;;;;;;5026746;28;20240;-68
2023/09/27 04:18:46;;;;;;;13.70;12.40;;;17.70;99.90;;;;;;5026652;28;20216;-68
2023/09/27 04:21:13;;;;;;;12.47;11.33;;;17.70;99.90;;;;;;5026988;28;20209;-68
2023/09/27 04:23:42;;;;;;;13.57;12.17;;;17.60;99.90;;;;;;5026519;28;20232;-68
2023/09/27 04:26:09;;;;;;;12.70;11.40;;;17.60;99.90;;;;;;5026515;28;20205;-68
2023/09/27 04:28:36;;;;;;;12.73;11.63;;;17.60;99.90;;;;;;5026548;28;20240;-68
2023/09/27 04:31:04;;;;;;;13.37;12.13;;;17.60;99.90;;;;;;5026620;28;20232;-68
2023/09/27 04:33:32;;;;;;;14.97;12.17;;;17.60;99.90;;;;;;5026429;28;20244;-68
2023/09/27 04:35:59;;;;;;;12.87;11.67;;;17.60;99.90;;;;;;5026429;28;20312;-68
2023/09/27 04:38:26;;;;;;;12.33;11.17;;;17.40;99.90;;;;;;5026158;28;20291;-68
2023/09/27 04:40:53;;;;;;;11.70;10.80;;;17.20;99.90;;;;;;5026387;28;20213;-68
2023/09/27 04:43:20;;;;;;;11.87;10.87;;;17.30;99.90;;;;;;5026689;28;20292;-68
2023/09/27 04:45:48;;;;;;;11.77;10.83;;;17.30;99.90;;;;;;5026379;28;20205;-68
2023/09/27 04:48:15;;;;;;;12.00;10.90;;;17.30;99.90;;;;;;5026286;28;20691;-69
2023/09/27 04:50:44;;;;;;;12.37;11.27;;;17.30;99.90;;;;;;5026176;28;20778;-68
2023/09/27 04:53:11;;;;;;;11.40;10.50;;;17.40;99.90;;;;;;5025746;28;20245;-68
2023/09/27 04:55:38;;;;;;;10.37;9.57;;;17.30;99.90;;;;;;5026397;28;20560;-68
2023/09/27 04:58:06;;;;;;;10.70;9.83;;;17.30;99.90;;;;;;5026361;28;20327;-68
2023/09/27 05:00:32;;;;;;;11.40;10.30;;;17.20;99.90;;;;;;5025547;28;20213;-69
2023/09/27 05:02:59;;;;;;;12.00;10.87;;;17.10;99.90;;;;;;5026417;28;20303;-68
2023/09/27 05:05:26;;;;;;;11.37;10.27;;;17.20;99.90;;;;;;5025782;28;20304;-68
2023/09/27 05:07:54;;;;;;;11.57;10.57;;;17.20;99.90;;;;;;5025694;28;20283;-69
2023/09/27 05:10:21;;;;;;;10.87;10.03;;;17.20;99.90;;;;;;5025509;28;20234;-68
2023/09/27 05:12:48;;;;;;;11.43;10.43;;;17.20;99.90;;;;;;5025161;28;20220;-68
2023/09/27 05:15:16;;;;;;;10.63;9.63;;;17.30;99.90;;;;;;5025805;28;20503;-68
2023/09/27 05:17:43;;;;;;;12.00;10.53;;;17.30;99.90;;;;;;5025309;28;20205;-68
2023/09/27 05:20:13;;;;;;;12.27;11.13;;;17.30;99.90;;;;;;5026000;28;20236;-68
2023/09/27 05:22:40;;;;;;;11.60;10.30;;;17.30;99.90;;;;;;5025525;28;20209;-68
2023/09/27 05:25:10;;;;;;;11.00;9.80;;;17.30;99.90;;;;;;5025790;28;20284;-68
2023/09/27 05:27:37;;;;;;;11.00;10.00;;;17.30;99.90;;;;;;5025682;28;20239;-68
2023/09/27 05:30:07;;;;;;;11.37;10.23;;;17.30;99.90;;;;;;5026025;28;20231;-69
2023/09/27 05:32:34;;;;;;;14.23;11.17;;;17.30;99.90;;;;;;5025878;28;20209;-69
2023/09/27 05:35:01;;;;;;;15.90;10.90;;;17.30;99.90;;;;;;5025959;28;20316;-68
2023/09/27 05:37:29;;;;;;;12.20;10.10;;;17.40;99.90;;;;;;5025253;28;20762;-68
2023/09/27 05:39:56;;;;;;;10.90;9.77;;;17.30;99.90;;;;;;5025717;28;20222;-68
2023/09/27 05:42:24;;;;;;;14.43;10.73;;;17.30;99.90;;;;;;5025238;28;20299;-68
2023/09/27 05:44:52;;;;;;;11.47;10.23;;;17.30;99.90;;;;;;5025146;28;20675;-68
2023/09/27 05:47:20;;;;;;;15.40;10.50;;;17.20;99.90;;;;;;5025262;28;20213;-68
2023/09/27 05:49:50;;;;;;;14.00;10.40;;;17.20;99.90;;;;;;5025325;28;20585;-68
2023/09/27 05:52:19;;;;;;;10.27;9.17;;;17.20;99.90;;;;;;5025568;28;20244;-68
2023/09/27 05:54:46;;;;;;;12.40;9.57;;;17.10;99.90;;;;;;5024942;28;20730;-69
2023/09/27 05:57:14;;;;;;;17.30;10.50;;;17.10;99.90;;;;;;5025526;28;20395;-69
2023/09/27 05:59:44;;;;;;;19.87;10.37;;;17.10;99.90;;;;;;5025119;28;20224;-68
2023/09/27 06:02:16;;;;;;;10.73;9.53;;;17.20;99.90;;;;;;5005596;28;20293;-68
2023/09/27 06:04:43;;;;;;;12.87;9.13;;;17.20;99.90;;;;;;5019310;28;20652;-68
2023/09/27 06:07:13;;;;;;;14.43;9.10;;;17.20;99.90;;;;;;5024936;28;20205;-69
2023/09/27 06:09:41;;;;;;;12.03;9.40;;;17.20;99.90;;;;;;5024606;28;20331;-68
2023/09/27 06:12:10;;;;;;;10.83;9.70;;;17.20;99.90;;;;;;5024760;28;20849;-68
2023/09/27 06:14:38;;;;;;;9.97;8.97;;;17.10;99.90;;;;;;5024761;28;20209;-69
2023/09/27 06:17:06;;;;;;;10.40;8.97;;;17.20;99.90;;;;;;5024948;28;20213;-68
2023/09/27 06:19:34;;;;;;;16.47;9.67;;;17.20;99.90;;;;;;5024652;28;20217;-68
2023/09/27 06:22:00;;;;;;;14.73;10.20;;;17.20;99.90;;;;;;5024745;28;20212;-68
2023/09/27 06:24:27;;;;;;;11.10;10.10;;;17.30;99.90;;;;;;5024414;28;20308;-68
2023/09/27 06:26:54;;;;;;;11.40;10.30;;;17.30;99.90;;;;;;5024625;28;20323;-68
2023/09/27 06:29:21;;;;;;;11.73;10.53;;;17.30;99.90;;;;;;5024876;28;20233;-69
2023/09/27 06:31:50;;;;;;;11.53;10.47;;;17.40;99.90;;;;;;5028880;28;20205;-68
2023/09/27 06:34:18;;;;;;;12.07;10.00;;;17.40;99.90;;;;;;5028995;28;20212;-68
2023/09/27 06:36:48;;;;;;;11.70;10.80;;;17.40;99.90;;;;;;5028315;28;20683;-68
2023/09/27 06:39:16;;;;;;;12.40;11.40;;;17.50;99.90;;;;;;5028743;28;20236;-69
2023/09/27 06:41:44;;;;;;;13.30;11.87;;;17.50;99.90;;;;;;5028694;28;20211;-69
2023/09/27 06:44:12;;;;;;;12.00;11.10;;;17.60;99.90;;;;;;5028575;28;20209;-69
2023/09/27 06:46:39;;;;;;;11.97;10.97;;;17.70;99.90;;;;;;5028226;28;20936;-69
2023/09/27 06:49:07;;;;;;;12.00;10.97;;;17.70;99.90;;;;;;5028335;28;20706;-70
2023/09/27 06:51:35;;;;;;;13.10;11.90;;;17.80;99.90;;;;;;5028114;28;20212;-69
2023/09/27 06:54:03;;;;;;;12.10;11.10;;;17.80;99.90;;;;;;5028164;28;20247;-69
2023/09/27 06:56:30;;;;;;;11.23;10.40;;;17.80;99.90;;;;;;5028532;28;20219;-69
2023/09/27 06:58:57;;;;;;;12.63;11.43;;;17.90;99.90;;;;;;5028014;28;20201;-69
2023/09/27 07:01:25;;;;;;;12.23;11.10;;;17.90;99.90;;;;;;5014691;28;20220;-70
2023/09/27 07:03:52;;;;;;;12.07;10.97;;;17.90;99.90;;;;;;5008583;28;20575;-69
2023/09/27 07:06:20;;;;;;;12.60;11.40;;;18.00;99.90;;;;;;5008249;28;20232;-69
2023/09/27 07:08:52;;;;;;;11.90;10.80;;;18.00;99.90;;;;;;5008252;28;20311;-70
2023/09/27 07:11:20;;;;;;;11.70;10.63;;;18.10;99.90;;;;;;5008398;28;20209;-67
2023/09/27 07:13:47;;;;;;;11.13;10.17;;;18.10;99.90;;;;;;5008479;28;20221;-68
2023/09/27 07:16:21;;;;;;;11.50;10.50;;;18.20;99.90;;;;;;5024845;28;20761;-68
2023/09/27 07:18:49;;;;;;;11.23;10.23;;;18.30;99.90;;;;;;5028172;28;20212;-68
2023/09/27 07:21:16;;;;;;;19.80;11.37;;;18.40;99.90;;;;;;5027731;28;20710;-68
2023/09/27 07:23:43;;;;;;;26.67;11.10;;;18.50;99.90;;;;;;5028341;28;20283;-68
2023/09/27 07:26:12;;;;;;;18.13;11.20;;;18.50;99.90;;;;;;5028167;28;20209;-68
2023/09/27 07:28:39;;;;;;;11.37;10.33;;;18.60;99.90;;;;;;5027486;28;20726;-68
2023/09/27 07:31:06;;;;;;;11.80;10.67;;;18.80;99.90;;;;;;5027538;28;20244;-68
2023/09/27 07:33:34;;;;;;;12.70;11.60;;;18.80;99.90;;;;;;5027610;28;20210;-68
2023/09/27 07:36:03;;;;;;;11.97;10.77;;;18.90;99.90;;;;;;5027561;28;20270;-68
2023/09/27 07:38:30;;;;;;;12.63;11.43;;;19.00;99.90;;;;;;5027481;28;20409;-68
2023/09/27 07:40:57;;;;;;;12.37;11.27;;;19.00;99.90;;;;;;5026536;28;20205;-68
2023/09/27 07:43:25;;;;;;;11.60;10.53;;;19.10;99.90;;;;;;5027066;28;20315;-69
2023/09/27 07:45:54;;;;;;;10.40;9.53;;;19.20;99.90;;;;;;5027576;28;20212;-68
2023/09/27 07:48:21;;;;;;;12.23;11.13;;;19.20;99.90;;;;;;5026937;28;20628;-68
2023/09/27 07:50:49;;;;;;;11.23;9.90;;;19.30;99.90;;;;;;5027341;28;20212;-69
2023/09/27 07:53:15;;;;;;;14.57;12.17;;;19.40;99.90;;;;;;5027314;28;20247;-68
2023/09/27 07:55:48;;;;;;;13.33;11.90;;;19.40;99.90;;;;;;5026862;28;20223;-68
2023/09/27 07:58:16;;;;;;;10.90;9.60;;;19.50;99.90;;;;;;5027104;28;20193;-69
2023/09/27 08:00:45;;;;;;;11.10;9.03;;;19.50;99.90;;;;;;5026401;28;20624;-68
2023/09/27 08:03:13;;;;;;;10.60;9.67;;;19.60;99.90;;;;;;5027043;28;20291;-68
2023/09/27 08:05:43;;;;;;;9.33;8.63;;;19.60;99.90;;;;;;5026512;28;20215;-68
2023/09/27 08:08:11;;;;;;;10.73;9.57;;;19.70;99.90;;;;;;5007418;28;20213;-68
2023/09/27 08:10:43;;;;;;;9.33;8.43;;;19.80;99.90;;;;;;5008596;28;20236;-68
2023/09/27 08:13:12;;;;;;;9.90;8.87;;;19.90;99.90;;;;;;5007155;28;20205;-68
2023/09/27 08:15:39;;;;;;;10.80;9.70;;;19.90;99.90;;;;;;5006945;28;20213;-69
2023/09/27 08:18:07;;;;;;;11.20;10.10;;;20.00;99.90;;;;;;5007189;28;20241;-68
2023/09/27 08:20:35;;;;;;;10.73;9.52;;;20.10;99.90;;;;;;5007250;28;20690;-69
2023/09/27 08:23:02;;;;;;;11.65;10.55;;;20.20;99.90;;;;;;5006967;28;20214;-68
2023/09/27 08:25:29;;;;;;;10.60;9.63;;;20.20;99.90;;;;;;5006941;28;20237;-69
2023/09/27 08:27:56;;;;;;;12.50;9.63;;;20.30;99.90;;;;;;5025916;28;20316;-68
2023/09/27 08:30:23;;;;;;;11.20;9.77;;;20.40;99.90;;;;;;5026339;28;20272;-68
2023/09/27 08:32:51;;;;;;;10.20;9.15;;;20.50;99.90;;;;;;5026232;28;20752;-68
2023/09/27 08:35:19;;;;;;;9.85;8.85;;;20.60;99.90;;;;;;5026434;28;20224;-68
2023/09/27 08:37:47;;;;;;;10.05;9.07;;;20.70;99.90;;;;;;5026151;28;20307;-69
2023/09/27 08:40:15;;;;;;;9.65;8.65;;;20.70;99.90;;;;;;5026442;28;20212;-69
2023/09/27 08:42:43;;;;;;;8.95;7.88;;;20.80;99.90;;;;;;5026051;28;20627;-69
2023/09/27 08:45:13;;;;;;;9.43;7.70;;;20.90;99.90;;;;;;5026371;28;20304;-69
2023/09/27 08:47:42;;;;;;;10.95;8.20;;;20.90;99.90;;;;;;5026122;28;20300;-69
2023/09/27 08:50:13;;;;;;;8.43;7.72;;;21.00;99.90;;;;;;5026265;28;20236;-69
2023/09/27 08:52:45;;;;;;;9.13;8.23;;;21.00;99.90;;;;;;5026064;28;20217;-69
2023/09/27 08:55:13;;;;;;;12.00;10.32;;;21.00;99.90;;;;;;5026681;28;20204;-69
2023/09/27 08:57:44;;;;;;;9.20;8.27;;;21.10;99.90;;;;;;5026015;28;20765;-69
2023/09/27 09:00:19;;;;;;;10.90;7.80;;;21.20;99.90;;;;;;5025964;28;20212;-69
2023/09/27 09:02:49;;;;;;;9.27;8.25;;;21.20;99.90;;;;;;5026126;28;20225;-69
2023/09/27 09:05:17;;;;;;;9.65;8.73;;;21.30;99.90;;;;;;5026058;28;20209;-69
2023/09/27 09:07:46;;;;;;;10.55;9.55;;;21.30;99.90;;;;;;5025795;28;20209;-70
2023/09/27 09:10:14;;;;;;;9.77;7.72;;;21.40;99.90;;;;;;5025966;28;20331;-69
2023/09/27 09:12:43;;;;;;;10.48;9.32;;;21.50;99.90;;;;;;5025903;28;20216;-69
2023/09/27 09:15:15;;;;;;;9.45;8.52;;;21.50;99.90;;;;;;5025925;28;20226;-69
2023/09/27 09:17:48;;;;;;;8.93;8.10;;;21.60;99.90;;;;;;5025510;28;20200;-69
2023/09/27 09:20:23;;;;;;;9.73;8.15;;;21.70;99.90;;;;;;5025791;28;20610;-69
2023/09/27 09:22:53;;;;;;;8.20;7.50;;;21.80;99.90;;;;;;5025326;28;20701;-69
2023/09/27 09:25:22;;;;;;;8.63;7.78;;;21.90;99.90;;;;;;5025625;28;20197;-69
2023/09/27 09:28:03;;;;;;;10.55;7.53;;;22.00;99.90;;;;;;5026108;28;20233;-69
2023/09/27 09:30:36;;;;;;;8.77;6.65;;;22.20;99.90;;;;;;5025746;28;20262;-69
2023/09/27 09:33:03;;;;;;;8.73;6.07;;;22.20;99.90;;;;;;5026138;28;20220;-69
2023/09/27 09:35:31;;;;;;;8.75;6.10;;;22.30;99.90;;;;;;5025766;28;20207;-69
2023/09/27 09:38:03;;;;;;;6.25;5.65;;;22.40;99.90;;;;;;5025694;28;20271;-69
2023/09/27 09:40:31;;;;;;;8.80;5.65;;;22.50;99.90;;;;;;5025699;28;20189;-69
2023/09/27 09:42:59;;;;;;;6.30;5.35;;;22.50;99.90;;;;;;5025237;28;20209;-69
2023/09/27 09:45:28;;;;;;;6.80;5.68;;;22.50;99.90;;;;;;5025311;28;20204;-69
2023/09/27 09:47:56;;;;;;;5.63;5.13;;;22.60;99.90;;;;;;5025286;28;20201;-70
2023/09/27 09:50:23;;;;;;;6.30;5.78;;;22.70;99.90;;;;;;5024798;28;20244;-68
2023/09/27 09:52:57;;;;;;;6.40;5.43;;;22.80;99.90;;;;;;5024945;28;20330;-69
2023/09/27 09:55:27;;;;;;;7.05;6.30;;;22.90;99.90;;;;;;5025152;28;20197;-69
2023/09/27 09:57:59;;;;;;;6.38;5.78;;;23.10;99.90;;;;;;5024845;28;20675;-69
2023/09/27 10:00:27;;;;;;;5.90;5.30;;;23.20;99.90;;;;;;5024780;28;20209;-69
2023/09/27 10:03:01;;;;;;;6.00;5.45;;;23.30;99.90;;;;;;5025341;28;20234;-69
2023/09/27 10:05:35;;;;;;;6.30;5.70;;;23.30;99.90;;;;;;5023761;28;20578;-69
2023/09/27 10:08:02;;;;;;;6.35;5.85;;;23.40;99.90;;;;;;5024964;28;20217;-69
2023/09/27 10:10:31;;;;;;;6.32;5.25;;;23.50;99.90;;;;;;5024957;28;20232;-70
2023/09/27 10:13:00;;;;;;;8.55;5.53;;;23.60;99.90;;;;;;5025280;28;20311;-69
2023/09/27 10:15:28;;;;;;;7.55;5.50;;;23.80;99.90;;;;;;5024932;28;20293;-69
2023/09/27 10:18:33;;;;;;;8.27;6.13;;;23.80;99.90;;;;;;5025152;28;20200;-69
2023/09/27 10:21:08;;;;;;;6.40;5.78;;;23.90;99.90;;;;;;5025381;28;20535;-69
2023/09/27 10:23:36;;;;;;;7.63;5.63;;;24.10;99.90;;;;;;5024943;28;20231;-69
2023/09/27 10:26:19;;;;;;;8.60;5.28;;;24.30;99.90;;;;;;5024695;28;20208;-70
2023/09/27 10:29:15;;;;;;;5.50;5.00;;;24.40;99.90;;;;;;5024331;28;20651;-70
2023/09/27 10:32:21;;;;;;;8.07;4.88;;;24.50;99.90;;;;;;4989789;28;20220;-69
2023/09/27 10:34:51;;;;;;;4.90;4.43;;;24.70;99.90;;;;;;5024525;28;20198;-70
2023/09/27 10:37:57;;;;;;;5.05;4.65;;;24.80;99.90;;;;;;5025002;28;20217;-69
2023/09/27 10:40:24;;;;;;;8.27;4.68;;;24.80;99.90;;;;;;5025044;28;20685;-69
2023/09/27 10:42:51;;;;;;;5.95;4.68;;;25.00;99.90;;;;;;5024897;28;20212;-69
2023/09/27 10:45:18;;;;;;;6.60;5.38;;;25.00;99.90;;;;;;5024436;28;20585;-69
2023/09/27 10:47:46;;;;;;;6.50;4.88;;;25.00;99.90;;;;;;5024550;28;20232;-69
2023/09/27 10:50:16;;;;;;;4.53;4.20;;;25.10;99.90;;;;;;5024825;28;20290;-69
2023/09/27 10:52:43;;;;;;;4.72;4.22;;;25.20;99.90;;;;;;5024333;28;20323;-69
2023/09/27 10:55:11;;;;;;;8.18;4.68;;;25.20;99.90;;;;;;5024715;28;20713;-69
2023/09/27 10:57:41;;;;;;;5.50;4.25;;;25.40;99.90;;;;;;5025088;28;20225;-71
2023/09/27 11:00:10;;;;;;;6.35;4.43;;;25.40;99.90;;;;;;5024461;28;20678;-70
2023/09/27 11:02:37;;;;;;;6.53;5.05;;;25.50;99.90;;;;;;5024816;28;20205;-70
2023/09/27 11:05:05;;;;;;;5.18;4.50;;;25.60;99.90;;;;;;5024370;28;20211;-70
2023/09/27 11:07:48;;;;;;;7.03;4.20;;;25.80;99.90;;;;;;5024370;28;20675;-70
2023/09/27 11:10:33;;;;;;;5.43;4.35;;;25.90;99.90;;;;;;5024326;28;20224;-70
2023/09/27 11:13:11;;;;;;;6.65;4.35;;;26.10;99.90;;;;;;5024033;28;20291;-70
2023/09/27 11:15:38;;;;;;;5.13;4.63;;;26.20;99.90;;;;;;5014271;28;20213;-70
2023/09/27 11:18:06;;;;;;;4.57;4.20;;;26.20;99.90;;;;;;5008377;28;20209;-70
2023/09/27 11:20:32;;;;;;;7.20;4.53;;;26.30;99.90;;;;;;5008297;28;20210;-70
2023/09/27 11:23:02;;;;;;;6.20;4.80;;;26.30;99.90;;;;;;5008255;28;20209;-70
2023/09/27 11:25:30;;;;;;;7.05;4.45;;;26.50;99.90;;;;;;5008197;28;20215;-70
2023/09/27 11:27:57;;;;;;;5.30;4.32;;;26.70;99.90;;;;;;5008544;28;20251;-70
2023/09/27 11:30:30;;;;;;;7.95;3.97;;;26.80;99.90;;;;;;5012867;28;20267;-70
2023/09/27 11:32:57;;;;;;;5.05;3.70;;;26.90;99.90;;;;;;5027877;28;20189;-70
2023/09/27 11:35:25;;;;;;;5.03;3.90;;;27.00;99.90;;;;;;5027614;28;20205;-70
2023/09/27 11:38:10;;;;;;;6.10;3.83;;;27.00;99.90;;;;;;5027745;28;20291;-70
2023/09/27 11:40:38;;;;;;;4.63;3.50;;;27.00;99.90;;;;;;5027118;28;20200;-70
2023/09/27 11:43:04;;;;;;;4.05;3.63;;;27.10;99.90;;;;;;5027511;28;20205;-70
2023/09/27 11:45:42;;;;;;;4.03;3.72;;;27.10;99.90;;;;;;5027013;28;20212;-70
2023/09/27 11:48:10;;;;;;;3.90;3.60;;;27.20;99.90;;;;;;5027231;28;20584;-70
2023/09/27 11:50:37;;;;;;;4.20;3.80;;;27.20;99.90;;;;;;5027315;28;20251;-70
2023/09/27 11:53:05;;;;;;;4.82;3.33;;;27.30;99.90;;;;;;5027393;28;20264;-70
2023/09/27 11:55:32;;;;;;;4.00;3.40;;;27.40;99.90;;;;;;5027462;28;20750;-70
2023/09/27 11:58:00;;;;;;;3.10;2.90;;;27.50;99.90;;;;;;5027663;28;20240;-70
2023/09/27 12:00:28;;;;;;;4.55;3.38;;;27.70;99.90;;;;;;5027129;28;20205;-70
2023/09/27 12:02:54;;;;;;;4.25;3.05;;;27.70;99.90;;;;;;5027286;28;20753;-70
2023/09/27 12:05:21;;;;;;;3.95;3.58;;;27.80;99.90;;;;;;5027428;28;20312;-70
2023/09/27 12:07:48;;;;;;;3.83;3.45;;;27.90;99.90;;;;;;5027565;28;20304;-70
2023/09/27 12:10:17;;;;;;;4.53;3.10;;;28.00;99.90;;;;;;5027338;28;20331;-70
2023/09/27 12:12:44;;;;;;;4.20;3.45;;;28.10;99.90;;;;;;5027048;28;20212;-70
2023/09/27 12:15:11;;;;;;;4.95;3.67;;;28.20;99.90;;;;;;5027087;28;20298;-70
2023/09/27 12:17:38;;;;;;;4.65;3.58;;;28.20;99.90;;;;;;5026679;28;20312;-70
2023/09/27 12:20:07;;;;;;;6.93;3.67;;;28.30;99.90;;;;;;5026435;28;20307;-70
2023/09/27 12:22:34;;;;;;;3.60;3.17;;;28.40;99.90;;;;;;5026514;28;20299;-70
2023/09/27 12:25:01;;;;;;;3.63;3.28;;;28.50;99.90;;;;;;5026809;28;20220;-70
2023/09/27 12:27:29;;;;;;;3.13;2.83;;;28.60;99.90;;;;;;5025850;28;20286;-70
2023/09/27 12:29:56;;;;;;;3.22;2.83;;;28.60;99.90;;;;;;5026307;28;20717;-70
2023/09/27 12:32:23;;;;;;;4.55;3.42;;;28.80;99.90;;;;;;5026573;28;20773;-70
2023/09/27 12:34:50;;;;;;;4.07;3.38;;;28.90;99.90;;;;;;5026621;28;20288;-70
2023/09/27 12:37:16;;;;;;;12.77;3.53;;;29.00;99.90;;;;;;5022698;28;20224;-70
2023/09/27 12:39:44;;;;;;;4.15;3.15;;;29.10;99.90;;;;;;5006322;28;20220;-70